Time;durP1;ratioP1;P1;durP2;ratioP2;P2;SDS_P1;SDS_P2;PMS_P1;PMS_P2;Temp;Humidity;BMP_temperature;BMP_pressure;BME280_temperature;BME280_humidity;BME280_pressure;Samples;Min_cycle;Max_cycle;Signal;HPM_P1;HPM_P2
2023/03/14 00:00:00;;;;;;;2.33;0.93;;;;;;;10.81;99.13;98210.97;10431961;28;20053;-70
2023/03/14 00:05:06;;;;;;;1.23;0.68;;;;;;;10.87;98.83;98204.09;10413128;28;20119;-68
2023/03/14 00:10:13;;;;;;;1.60;0.98;;;;;;;10.88;97.86;98217.25;10419542;28;20052;-72
2023/03/14 00:15:15;;;;;;;0.80;0.60;;;;;;;10.91;97.66;98206.28;10421126;28;20151;-70
2023/03/14 00:20:17;;;;;;;1.90;0.88;;;;;;;10.92;96.30;98221.22;10410698;28;20049;-70
2023/03/14 00:25:18;;;;;;;1.27;0.52;;;;;;;10.94;94.80;98221.88;10432139;28;20069;-69
2023/03/14 00:30:20;;;;;;;1.63;0.65;;;;;;;10.95;94.76;98225.38;10436425;28;20104;-74
2023/03/14 00:35:21;;;;;;;1.17;0.60;;;;;;;10.91;93.96;98216.91;10439241;28;20052;-70
2023/03/14 00:40:22;;;;;;;1.65;0.52;;;;;;;10.89;94.49;98216.25;10425933;28;20071;-70
2023/03/14 00:45:24;;;;;;;3.10;0.77;;;;;;;10.90;93.57;98209.94;10428686;28;20138;-73
2023/03/14 00:50:25;;;;;;;1.30;0.65;;;;;;;10.90;93.44;98201.94;10420975;28;20070;-70
2023/03/14 00:55:27;;;;;;;1.98;1.17;;;;;;;10.93;92.83;98182.94;10419978;28;20176;-67
2023/03/14 01:00:28;;;;;;;0.80;0.52;;;;;;;10.95;92.75;98174.78;10418759;28;20080;-70
2023/03/14 01:05:30;;;;;;;0.95;0.57;;;;;;;10.89;91.71;98160.34;10416299;28;20445;-68
2023/03/14 01:10:32;;;;;;;2.88;0.50;;;;;;;10.88;91.68;98174.66;10414569;28;20052;-68
2023/03/14 01:15:35;;;;;;;1.95;0.60;;;;;;;10.90;91.95;98188.63;10412830;28;20053;-71
2023/03/14 01:20:37;;;;;;;2.45;0.65;;;;;;;10.94;91.25;98200.59;10391758;28;20053;-70
2023/03/14 01:25:41;;;;;;;2.22;0.70;;;;;;;10.92;91.32;98210.56;10409261;28;20049;-71
2023/03/14 01:30:42;;;;;;;1.55;0.50;;;;;;;10.91;90.64;98206.28;10393254;28;20136;-71
2023/03/14 01:35:44;;;;;;;2.22;0.73;;;;;;;10.91;90.34;98189.44;10407647;28;20053;-68
2023/03/14 01:40:45;;;;;;;2.05;0.57;;;;;;;10.82;90.23;98175.34;10410883;28;20055;-72
2023/03/14 01:46:05;;;;;;;3.10;0.63;;;;;;;10.97;89.55;98178.09;10390260;28;20531;-72
2023/03/14 01:51:11;;;;;;;4.13;0.68;;;;;;;10.93;88.36;98169.66;10411192;28;20049;-70
2023/03/14 01:56:17;;;;;;;1.60;0.70;;;;;;;10.95;87.76;98153.50;10406572;28;20045;-73
2023/03/14 02:01:21;;;;;;;2.60;0.80;;;;;;;10.94;86.98;98141.19;10410795;28;20057;-71
2023/03/14 02:06:33;;;;;;;2.70;0.85;;;;;;;10.87;86.88;98125.09;10409961;28;20581;-74
2023/03/14 02:11:34;;;;;;;1.88;0.50;;;;;;;10.92;86.75;98133.38;10412514;28;20068;-70
2023/03/14 02:16:35;;;;;;;3.50;0.80;;;;;;;10.89;86.60;98106.31;10396779;28;20079;-71
2023/03/14 02:21:52;;;;;;;3.65;0.73;;;;;;;10.96;86.73;98104.59;10411333;28;20117;-69
2023/03/14 02:27:14;;;;;;;4.38;0.70;;;;;;;10.97;86.58;98100.91;10415709;28;20057;-71
2023/03/14 02:32:17;;;;;;;4.32;0.80;;;;;;;10.98;86.91;98077.78;10418186;28;20118;-73
2023/03/14 02:37:21;;;;;;;2.20;0.70;;;;;;;10.96;86.97;98069.97;10423941;28;20288;-70
2023/03/14 02:42:22;;;;;;;2.47;0.70;;;;;;;10.86;86.76;98072.88;10416791;28;20384;-73
2023/03/14 02:47:28;;;;;;;3.10;0.70;;;;;;;10.78;86.65;98073.78;10452826;28;20132;-74
2023/03/14 02:52:30;;;;;;;4.60;1.52;;;;;;;10.85;86.15;98089.03;10465300;28;20050;-70
2023/03/14 02:57:31;;;;;;;0.85;0.40;;;;;;;10.88;85.95;98099.31;10418348;28;20093;-72
2023/03/14 03:02:32;;;;;;;2.90;1.45;;;;;;;10.88;85.56;98086.81;10417431;28;20044;-71
2023/03/14 03:07:34;;;;;;;3.70;0.80;;;;;;;10.82;84.95;98087.53;10415982;28;20143;-71
2023/03/14 03:12:35;;;;;;;1.98;0.80;;;;;;;10.82;84.72;98066.25;10416593;28;20053;-72
2023/03/14 03:17:37;;;;;;;3.88;0.70;;;;;;;10.83;85.00;98070.56;10401624;28;20058;-72
2023/03/14 03:22:39;;;;;;;4.15;0.70;;;;;;;10.78;85.12;98078.28;10391241;28;20116;-70
2023/03/14 03:27:40;;;;;;;1.58;0.60;;;;;;;10.86;84.96;98056.09;10416387;28;20128;-71
2023/03/14 03:32:41;;;;;;;1.50;0.50;;;;;;;10.84;85.58;98060.75;10413717;28;20683;-71
2023/03/14 03:37:43;;;;;;;3.70;1.02;;;;;;;10.87;85.46;98055.91;10397058;28;20466;-71
2023/03/14 03:42:45;;;;;;;1.50;0.60;;;;;;;10.86;85.04;98064.88;10401361;28;20132;-71
2023/03/14 03:47:47;;;;;;;3.47;0.60;;;;;;;10.82;85.74;98042.28;10415732;28;20059;-70
2023/03/14 03:52:49;;;;;;;2.03;0.60;;;;;;;10.89;85.27;98029.94;10418355;28;20256;-70
2023/03/14 03:57:50;;;;;;;2.50;0.60;;;;;;;10.89;84.97;98016.63;10399606;28;20431;-71
2023/03/14 04:02:52;;;;;;;1.88;0.75;;;;;;;10.88;84.86;98019.47;10414446;28;20064;-71
2023/03/14 04:07:53;;;;;;;2.30;0.68;;;;;;;10.82;84.67;98009.53;10412733;28;20059;-71
2023/03/14 04:12:55;;;;;;;3.05;0.85;;;;;;;10.87;84.63;98021.31;10414769;28;20506;-72
2023/03/14 04:17:58;;;;;;;3.55;0.98;;;;;;;10.92;84.25;98023.44;10400758;28;20322;-73
2023/03/14 04:22:59;;;;;;;3.25;0.60;;;;;;;10.95;84.51;98026.53;10414787;28;20691;-71
2023/03/14 04:28:01;;;;;;;1.60;0.60;;;;;;;10.91;83.65;98024.44;10417322;28;20107;-70
2023/03/14 04:33:02;;;;;;;4.15;1.25;;;;;;;10.88;83.90;98014.97;10416891;28;20504;-72
2023/03/14 04:38:04;;;;;;;3.40;0.80;;;;;;;10.90;83.44;98018.28;10400954;28;20048;-72
2023/03/14 04:43:10;;;;;;;2.08;0.68;;;;;;;10.90;82.86;98007.63;10395728;28;20481;-69
2023/03/14 04:48:14;;;;;;;3.53;0.60;;;;;;;10.88;82.45;98009.63;10397075;28;20892;-70
2023/03/14 04:53:16;;;;;;;2.88;1.27;;;;;;;10.92;81.58;98013.59;10394809;28;20075;-71
2023/03/14 04:58:18;;;;;;;2.45;0.80;;;;;;;10.88;81.08;97995.50;10413740;28;20138;-70
2023/03/14 05:03:20;;;;;;;2.15;0.65;;;;;;;10.91;80.45;97998.66;10410197;28;20053;-71
2023/03/14 05:08:21;;;;;;;5.45;1.55;;;;;;;10.86;79.95;97990.38;10412100;28;20138;-72
2023/03/14 05:13:23;;;;;;;3.15;0.60;;;;;;;10.89;79.27;98005.16;10412205;28;20484;-71
2023/03/14 05:18:25;;;;;;;2.65;1.23;;;;;;;10.89;79.05;97990.00;10413303;28;20058;-70
2023/03/14 05:23:26;;;;;;;2.05;0.60;;;;;;;10.88;78.70;97983.03;10411080;28;20094;-71
2023/03/14 05:28:28;;;;;;;2.97;0.65;;;;;;;10.90;78.56;97978.34;10406042;28;20136;-71
2023/03/14 05:33:30;;;;;;;4.50;0.75;;;;;;;10.90;78.25;97982.84;10410530;28;20051;-72
2023/03/14 05:38:31;;;;;;;2.78;0.85;;;;;;;11.00;78.33;97985.25;10395897;28;20134;-71
2023/03/14 05:43:33;;;;;;;2.40;0.50;;;;;;;10.95;77.47;97973.31;10379365;28;20052;-71
2023/03/14 05:48:34;;;;;;;3.47;0.70;;;;;;;10.93;77.24;97967.34;10411016;28;20580;-73
2023/03/14 05:53:35;;;;;;;2.20;0.50;;;;;;;10.88;77.69;97966.22;10394088;28;20571;-71
2023/03/14 05:58:38;;;;;;;3.10;0.50;;;;;;;10.88;77.26;97961.72;10398462;28;20056;-71
2023/03/14 06:03:39;;;;;;;2.42;0.68;;;;;;;10.88;77.35;97961.72;10404019;28;21127;-71
2023/03/14 06:08:41;;;;;;;2.58;0.50;;;;;;;10.91;77.06;97977.34;10417353;28;20068;-72
2023/03/14 06:13:42;;;;;;;2.10;0.38;;;;;;;10.89;77.55;97958.06;10428756;28;20092;-71
2023/03/14 06:18:46;;;;;;;4.40;1.00;;;;;;;10.93;76.73;97958.56;10449196;28;20029;-71
2023/03/14 06:23:47;;;;;;;4.77;0.97;;;;;;;10.93;77.07;97947.91;10461058;28;20132;-71
2023/03/14 06:28:50;;;;;;;1.10;0.43;;;;;;;10.96;77.14;97953.69;10427723;28;20538;-70
2023/03/14 06:33:52;;;;;;;1.52;0.60;;;;;;;10.90;76.96;97938.44;10409352;28;20067;-71
2023/03/14 06:38:53;;;;;;;3.03;0.77;;;;;;;10.96;77.07;97953.69;10419717;28;20053;-69
2023/03/14 06:43:55;;;;;;;5.15;1.00;;;;;;;10.81;76.74;97931.56;10402965;28;20103;-70
2023/03/14 06:48:57;;;;;;;3.45;0.80;;;;;;;10.92;76.34;97930.28;10410444;28;20056;-69
2023/03/14 06:53:58;;;;;;;1.88;0.40;;;;;;;10.91;76.33;97937.44;10399976;28;20064;-75
2023/03/14 06:59:00;;;;;;;6.15;0.77;;;;;;;10.92;75.88;97941.72;10400720;28;20124;-71
2023/03/14 07:04:02;;;;;;;3.42;0.43;;;;;;;10.94;75.83;97942.41;10393298;28;20060;-71
2023/03/14 07:09:03;;;;;;;1.58;0.55;;;;;;;10.98;76.56;97956.16;10407667;28;20057;-73
2023/03/14 07:14:05;;;;;;;2.67;0.40;;;;;;;11.00;75.75;97962.09;10410674;28;20055;-72
2023/03/14 07:19:07;;;;;;;1.67;0.60;;;;;;;11.04;75.74;97950.09;10422599;28;20094;-72
2023/03/14 07:24:08;;;;;;;1.88;0.22;;;;;;;11.04;75.53;97949.28;10426837;28;20079;-71
2023/03/14 07:29:09;;;;;;;2.58;0.90;;;;;;;11.16;75.98;97962.97;10412089;28;20092;-68
2023/03/14 07:34:11;;;;;;;3.08;0.40;;;;;;;11.15;75.57;97967.44;10390224;28;1086843;-72
2023/03/14 07:39:13;;;;;;;1.65;0.50;;;;;;;11.12;75.34;97947.38;10407304;28;20907;-71
2023/03/14 07:44:14;;;;;;;1.58;0.68;;;;;;;11.10;75.74;97956.53;10421074;28;20063;-68
2023/03/14 07:49:15;;;;;;;1.60;0.60;;;;;;;11.20;75.71;97949.09;10418621;28;20764;-69
2023/03/14 07:54:17;;;;;;;3.40;0.40;;;;;;;11.24;75.95;97968.19;10387514;28;20075;-70
2023/03/14 07:59:21;;;;;;;4.10;0.40;;;;;;;11.32;76.02;97957.47;10405625;28;20090;-71
2023/03/14 08:04:22;;;;;;;1.48;0.40;;;;;;;11.11;75.46;97956.34;10408745;28;20923;-70
2023/03/14 08:09:24;;;;;;;2.20;0.52;;;;;;;11.24;75.24;97968.19;10394268;28;20048;-69
2023/03/14 08:14:25;;;;;;;3.53;0.47;;;;;;;11.20;76.10;97970.41;10410164;28;20049;-69
2023/03/14 08:19:27;;;;;;;2.95;0.40;;;;;;;11.12;76.25;97958.00;10410411;28;20093;-72
2023/03/14 08:24:28;;;;;;;5.03;0.80;;;;;;;11.11;76.26;97952.88;10389363;28;20679;-69
2023/03/14 08:29:30;;;;;;;4.05;0.70;;;;;;;11.12;76.31;97941.19;10407875;28;20518;-70
2023/03/14 08:34:33;;;;;;;1.95;0.30;;;;;;;11.20;75.96;97949.09;10404133;28;20160;-69
2023/03/14 08:39:34;;;;;;;2.83;0.68;;;;;;;11.37;77.47;97948.91;10406129;28;20645;-70
2023/03/14 08:44:36;;;;;;;1.52;0.50;;;;;;;11.30;77.12;97952.31;10393561;28;20045;-73
2023/03/14 08:49:38;;;;;;;2.60;0.68;;;;;;;11.29;78.53;97948.00;10406573;28;20488;-71
2023/03/14 08:54:39;;;;;;;2.15;0.40;;;;;;;11.37;78.05;97947.06;10405050;28;20065;-71
2023/03/14 08:59:41;;;;;;;4.40;0.55;;;;;;;11.40;77.44;97954.69;10408156;28;20526;-71
2023/03/14 09:04:42;;;;;;;2.90;0.85;;;;;;;11.50;77.47;97965.88;10398036;28;20052;-69
2023/03/14 09:09:44;;;;;;;2.97;1.52;;;;;;;11.71;77.79;97971.44;10402231;28;20124;-71
2023/03/14 09:14:46;;;;;;;1.55;0.43;;;;;;;11.69;75.46;97963.63;10409345;28;20056;-71
2023/03/14 09:19:47;;;;;;;1.30;0.40;;;;;;;11.79;75.16;97971.34;10404639;28;20097;-70
2023/03/14 09:24:49;;;;;;;1.42;0.43;;;;;;;11.82;75.23;97966.47;10437272;28;20116;-71
2023/03/14 09:29:50;;;;;;;2.22;0.47;;;;;;;12.02;73.66;97979.22;10407903;28;20178;-71
2023/03/14 09:34:51;;;;;;;0.85;0.40;;;;;;;11.98;73.77;97972.59;10387572;28;20048;-69
2023/03/14 09:39:53;;;;;;;2.50;0.35;;;;;;;12.04;73.10;97969.22;10405709;28;20057;-70
2023/03/14 09:44:59;;;;;;;0.60;0.55;;;;;;;11.99;73.68;97985.78;10406496;28;20499;-70
2023/03/14 09:50:01;;;;;;;1.02;0.57;;;;;;;11.94;75.55;97996.16;10440255;28;20037;-73
2023/03/14 09:55:15;;;;;;;1.90;0.50;;;;;;;11.81;76.99;97987.97;10398974;28;20112;-70
2023/03/14 10:00:22;;;;;;;1.73;0.30;;;;;;;11.88;77.54;97990.75;10417549;28;20052;-71
2023/03/14 10:05:27;;;;;;;0.70;0.32;;;;;;;11.77;78.97;97992.03;10418896;28;20286;-72
2023/03/14 10:10:29;;;;;;;1.77;0.45;;;;;;;11.76;79.35;97990.38;10407854;28;20053;-70
2023/03/14 10:15:33;;;;;;;0.73;0.50;;;;;;;11.63;78.13;97980.38;10413608;28;20059;-70
2023/03/14 10:20:36;;;;;;;1.45;0.50;;;;;;;11.68;78.60;97984.16;10408694;28;20057;-71
2023/03/14 10:25:40;;;;;;;1.83;0.40;;;;;;;11.72;77.90;97978.44;10392220;28;20083;-70
2023/03/14 10:30:45;;;;;;;1.50;0.47;;;;;;;11.78;76.99;97964.38;10390270;28;20059;-70
2023/03/14 10:35:57;;;;;;;2.05;0.80;;;;;;;11.96;77.10;97964.81;10393848;28;20288;-72
2023/03/14 10:41:00;;;;;;;2.05;1.10;;;;;;;11.95;76.49;97968.50;10401380;28;20132;-72
2023/03/14 10:46:12;;;;;;;0.57;0.28;;;;;;;11.91;77.47;97964.53;10382982;28;20570;-71
2023/03/14 10:51:16;;;;;;;1.63;0.68;;;;;;;12.02;78.55;97971.22;10402139;28;20079;-72
2023/03/14 10:56:20;;;;;;;1.50;0.50;;;;;;;11.90;80.63;97970.03;10400227;28;20078;-70
2023/03/14 11:01:28;;;;;;;1.25;0.40;;;;;;;11.74;83.46;97977.25;10380789;28;20147;-71
2023/03/14 11:06:44;;;;;;;1.05;0.40;;;;;;;11.63;85.55;97967.91;10383821;28;20059;-71
2023/03/14 11:11:47;;;;;;;0.90;0.40;;;;;;;11.60;87.75;97965.59;10404984;28;20053;-70
2023/03/14 11:16:59;;;;;;;0.80;0.63;;;;;;;11.65;88.69;97967.72;10415645;28;20059;-69
2023/03/14 11:22:23;;;;;;;0.85;0.50;;;;;;;11.48;90.02;97973.25;10415009;28;20095;-71
2023/03/14 11:27:42;;;;;;;2.58;0.65;;;;;;;11.38;91.79;97955.88;10407943;28;20061;-70
2023/03/14 11:32:45;;;;;;;2.72;0.88;;;;;;;11.45;92.65;97978.09;10406265;28;20136;-71
2023/03/14 11:37:54;;;;;;;2.45;0.73;;;;;;;11.43;91.68;97980.94;10408799;28;20134;-69
2023/03/14 11:43:17;;;;;;;2.25;0.70;;;;;;;11.54;91.31;97968.19;10409219;28;20061;-71
2023/03/14 11:49:09;;;;;;;1.15;0.60;;;;;;;11.61;90.96;97967.25;10410149;28;20122;-70
2023/03/14 11:54:39;;;;;;;1.88;0.90;;;;;;;11.77;90.79;97968.03;10343478;28;20044;-71
2023/03/14 11:59:56;;;;;;;0.82;0.52;;;;;;;11.80;88.89;97976.50;10408334;28;20135;-71
2023/03/14 12:05:03;;;;;;;0.90;0.40;;;;;;;11.68;89.94;97972.66;10391873;28;20048;-72
2023/03/14 12:10:05;;;;;;;2.60;0.80;;;;;;;11.74;91.24;97977.25;10404071;28;20056;-72
2023/03/14 12:15:20;;;;;;;2.72;0.90;;;;;;;11.56;86.65;98048.75;10401129;28;20053;-73
2023/03/14 12:20:26;;;;;;;0.98;0.77;;;;;;;11.15;86.18;98100.56;10407755;28;20210;-73
2023/03/14 12:25:30;;;;;;;1.38;0.13;;;;;;;11.06;84.62;98117.63;10411207;28;20052;-74
2023/03/14 12:30:41;;;;;;;0.73;0.10;;;;;;;10.82;81.84;98127.44;10392514;28;20052;-71
2023/03/14 12:35:44;;;;;;;0.30;0.10;;;;;;;10.39;78.55;98185.59;10412083;28;20047;-73
2023/03/14 12:41:17;;;;;;;0.10;0.00;;;;;;;10.56;77.72;98207.63;10412188;28;20060;-72
2023/03/14 12:46:26;;;;;;;0.00;0.00;;;;;;;10.79;76.92;98220.97;10441370;28;20161;-74
2023/03/14 12:51:29;;;;;;;0.20;0.10;;;;;;;10.83;74.50;98243.56;10457898;28;20033;-73
2023/03/14 12:56:50;;;;;;;0.20;0.10;;;;;;;11.77;73.62;98261.22;10462768;28;20049;-73
2023/03/14 13:01:59;;;;;;;0.98;0.30;;;;;;;11.18;74.33;98286.63;10450119;28;20040;-73
2023/03/14 13:07:02;;;;;;;1.85;0.30;;;;;;;10.73;72.41;98325.44;10431299;28;20049;-72
2023/03/14 13:12:10;;;;;;;0.38;0.10;;;;;;;10.85;73.26;98313.41;10413861;28;20060;-71
2023/03/14 13:17:13;;;;;;;0.73;0.30;;;;;;;10.98;69.58;98339.50;10423231;28;20044;-73
2023/03/14 13:22:36;;;;;;;0.50;0.30;;;;;;;11.35;67.67;98361.09;10478233;28;20063;-71
2023/03/14 13:27:41;;;;;;;0.57;0.30;;;;;;;11.40;65.94;98377.41;10476491;28;20124;-70
2023/03/14 13:32:45;;;;;;;0.30;0.20;;;;;;;11.96;62.32;98371.91;10435686;28;20053;-72
2023/03/14 13:37:52;;;;;;;0.30;0.20;;;;;;;11.80;64.68;98397.66;10432954;28;20049;-71
2023/03/14 13:43:23;;;;;;;0.20;0.10;;;;;;;11.97;63.83;98427.72;10402374;28;20416;-73
2023/03/14 13:48:28;;;;;;;;;;;;;;;12.29;61.27;98433.00;10427854;28;20072;-71
2023/03/14 13:53:31;;;;;;;1.48;0.30;;;;;;;11.99;62.83;98443.53;10427706;28;19929;-73
2023/03/14 13:58:36;;;;;;;0.57;0.22;;;;;;;11.41;66.19;98490.94;10422632;28;20053;-71
2023/03/14 14:03:42;;;;;;;1.00;0.20;;;;;;;11.03;66.08;98493.38;10419630;28;20521;-71
2023/03/14 14:08:44;;;;;;;0.63;0.10;;;;;;;11.05;64.51;98497.56;10423719;28;20053;-73
2023/03/14 14:13:46;;;;;;;2.20;0.30;;;;;;;11.14;66.03;98517.00;10416884;28;20136;-69
2023/03/14 14:18:47;;;;;;;0.80;0.20;;;;;;;11.17;65.93;98556.63;10417805;28;20059;-71
2023/03/14 14:23:49;;;;;;;0.90;0.20;;;;;;;11.17;64.12;98563.75;10410008;28;20171;-71
2023/03/14 14:29:01;;;;;;;0.68;0.22;;;;;;;11.38;63.07;98585.38;10400415;28;20133;-70
2023/03/14 14:34:03;;;;;;;1.77;0.17;;;;;;;10.58;66.06;98641.91;10409517;28;20197;-72
2023/03/14 14:39:12;;;;;;;0.28;0.08;;;;;;;9.35;70.43;98650.13;10409515;28;20051;-69
2023/03/14 14:44:20;;;;;;;0.30;0.10;;;;;;;9.45;71.85;98661.47;10413998;28;20132;-71
2023/03/14 14:49:29;;;;;;;1.77;0.10;;;;;;;9.43;71.12;98684.72;10414655;28;20056;-71
2023/03/14 14:54:39;;;;;;;0.25;0.10;;;;;;;9.30;70.47;98701.03;10417880;28;20059;-72
2023/03/14 14:59:44;;;;;;;1.13;0.30;;;;;;;9.40;71.53;98716.91;10367594;28;20049;-72
2023/03/14 15:04:46;;;;;;;0.40;0.20;;;;;;;9.68;71.48;98733.56;10412064;28;20076;-71
2023/03/14 15:09:48;;;;;;;0.60;0.40;;;;;;;9.62;71.19;98739.47;10410465;28;20056;-71
2023/03/14 15:14:50;;;;;;;0.10;0.10;;;;;;;9.60;69.40;98767.19;10389145;28;21205;-71
2023/03/14 15:19:51;;;;;;;1.00;0.65;;;;;;;9.25;70.97;98782.97;10425017;28;20048;-71
2023/03/14 15:24:53;;;;;;;1.00;0.70;;;;;;;9.26;70.20;98794.44;10451771;28;20040;-72
2023/03/14 15:29:55;;;;;;;0.93;0.82;;;;;;;8.90;71.11;98810.28;10444780;28;20061;-71
2023/03/14 15:34:57;;;;;;;0.57;0.32;;;;;;;8.97;68.44;98814.03;10394524;28;20063;-69
2023/03/14 15:39:58;;;;;;;0.50;0.32;;;;;;;8.94;70.08;98838.22;10412295;28;20052;-71
2023/03/14 15:45:00;;;;;;;1.50;0.40;;;;;;;9.00;68.42;98850.91;10412271;28;20082;-70
2023/03/14 15:50:01;;;;;;;0.20;0.10;;;;;;;8.98;69.42;98858.19;10413131;28;20111;-71
2023/03/14 15:55:03;;;;;;;0.30;0.10;;;;;;;9.10;69.52;98864.94;10387344;28;20064;-71
2023/03/14 16:00:08;;;;;;;1.25;0.13;;;;;;;8.98;68.43;98882.06;10400056;28;20049;-70
2023/03/14 16:05:10;;;;;;;0.30;0.25;;;;;;;8.98;69.13;98895.34;10417700;28;20113;-71
2023/03/14 16:10:13;;;;;;;0.57;0.20;;;;;;;9.00;68.95;98896.00;10410897;28;20110;-70
2023/03/14 16:15:14;;;;;;;0.40;0.20;;;;;;;9.00;67.59;98906.63;10393259;28;20677;-74
2023/03/14 16:20:19;;;;;;;0.47;0.20;;;;;;;8.95;68.57;98911.56;10399562;28;20834;-71
2023/03/14 16:25:21;;;;;;;0.70;0.38;;;;;;;8.70;69.73;98932.44;10415214;28;20491;-70
2023/03/14 16:30:22;;;;;;;0.85;0.20;;;;;;;8.89;69.58;98944.81;10412288;28;20061;-71
2023/03/14 16:35:23;;;;;;;0.55;0.43;;;;;;;8.84;70.88;98949.69;10412954;28;20052;-70
2023/03/14 16:40:25;;;;;;;0.68;0.28;;;;;;;8.71;71.19;98960.63;10410935;28;20076;-69
2023/03/14 16:45:27;;;;;;;0.88;0.22;;;;;;;8.48;72.99;98960.97;10410000;28;20389;-71
2023/03/14 16:50:29;;;;;;;0.60;0.40;;;;;;;8.69;74.47;98970.53;10451099;28;20045;-69
2023/03/14 16:55:30;;;;;;;0.43;0.35;;;;;;;8.75;74.79;98983.25;10451504;28;20439;-70
2023/03/14 17:00:32;;;;;;;0.40;0.20;;;;;;;8.46;72.94;99000.03;10419488;28;20045;-68
2023/03/14 17:05:33;;;;;;;1.55;0.45;;;;;;;8.02;73.75;99023.44;10408293;28;20123;-69
2023/03/14 17:10:35;;;;;;;0.75;0.43;;;;;;;7.89;75.94;99034.28;10404371;28;20053;-69
2023/03/14 17:15:44;;;;;;;0.87;0.40;;;;;;;7.92;75.85;99057.03;10382803;28;20144;-70
2023/03/14 17:20:46;;;;;;;0.20;0.10;;;;;;;7.80;75.89;99056.28;10400248;28;20631;-70
2023/03/14 17:25:49;;;;;;;1.35;0.40;;;;;;;8.06;75.28;99051.34;10389418;28;20154;-69
2023/03/14 17:31:01;;;;;;;0.43;0.22;;;;;;;8.16;75.14;99074.38;10393716;28;20040;-70
2023/03/14 17:36:03;;;;;;;0.30;0.30;;;;;;;8.12;74.74;99102.94;10406348;28;20735;-74
2023/03/14 17:41:10;;;;;;;0.28;0.10;;;;;;;8.03;74.12;99123.19;10401997;28;20480;-70
2023/03/14 17:46:16;;;;;;;0.73;0.22;;;;;;;8.03;74.14;99139.09;10382761;28;20545;-69
2023/03/14 17:51:17;;;;;;;0.63;0.28;;;;;;;7.59;73.95;99151.72;10405133;28;20056;-69
2023/03/14 17:56:19;;;;;;;0.88;0.30;;;;;;;7.63;74.69;99150.47;10403595;28;20072;-72
2023/03/14 18:01:20;;;;;;;0.75;0.28;;;;;;;7.53;74.39;99181.38;10407078;28;20542;-72
2023/03/14 18:06:23;;;;;;;0.75;0.30;;;;;;;7.73;74.63;99177.88;10405180;28;20180;-69
2023/03/14 18:11:25;;;;;;;1.65;1.05;;;;;;;7.78;73.95;99185.41;10403222;28;20068;-70
2023/03/14 18:16:27;;;;;;;1.42;0.70;;;;;;;7.68;74.58;99195.09;10396535;28;20245;-69
2023/03/14 18:21:29;;;;;;;1.77;0.70;;;;;;;7.63;74.17;99213.19;10404331;28;20059;-69
2023/03/14 18:26:32;;;;;;;0.80;0.68;;;;;;;7.77;74.13;99237.53;10403390;28;20056;-70
2023/03/14 18:31:33;;;;;;;0.93;0.50;;;;;;;7.72;72.57;99246.88;10381324;28;20088;-69
2023/03/14 18:36:35;;;;;;;1.58;0.50;;;;;;;7.77;72.02;99258.72;10392129;28;20083;-70
2023/03/14 18:41:38;;;;;;;1.67;0.68;;;;;;;7.82;72.36;99261.03;10399270;28;20061;-70
2023/03/14 18:46:41;;;;;;;2.70;1.20;;;;;;;7.78;70.50;99256.94;10401568;28;20727;-70
2023/03/14 18:51:42;;;;;;;2.55;0.77;;;;;;;7.75;70.08;99270.44;10389133;28;20063;-70
2023/03/14 18:56:44;;;;;;;2.60;1.23;;;;;;;7.85;70.50;99278.44;10409582;28;20159;-70
2023/03/14 19:01:45;;;;;;;2.88;1.27;;;;;;;7.93;70.35;99299.84;10406537;28;20259;-72
2023/03/14 19:06:47;;;;;;;2.60;1.40;;;;;;;7.97;69.01;99311.84;10405945;28;20055;-70
2023/03/14 19:11:48;;;;;;;2.97;1.50;;;;;;;7.95;68.32;99311.16;10406326;28;20052;-70
2023/03/14 19:16:50;;;;;;;3.13;1.83;;;;;;;8.09;69.28;99309.97;10387351;28;20127;-73
2023/03/14 19:21:52;;;;;;;3.40;1.67;;;;;;;8.11;68.72;99330.06;10390621;28;20052;-72
2023/03/14 19:26:54;;;;;;;4.53;2.42;;;;;;;8.05;68.95;99335.91;10407281;28;20621;-72
2023/03/14 19:31:56;;;;;;;6.03;2.83;;;;;;;8.07;69.11;99347.19;10410149;28;20052;-70
2023/03/14 19:36:58;;;;;;;3.20;2.03;;;;;;;8.11;67.67;99367.19;10392987;28;20060;-71
2023/03/14 19:41:59;;;;;;;7.65;2.78;;;;;;;7.93;67.55;99358.97;10401373;28;20199;-71
2023/03/14 19:47:01;;;;;;;6.70;3.33;;;;;;;7.93;66.47;99376.69;10398437;28;20496;-70
2023/03/14 19:52:02;;;;;;;4.45;2.53;;;;;;;7.92;68.34;99390.91;10416509;28;20110;-71
2023/03/14 19:57:04;;;;;;;8.20;3.80;;;;;;;7.82;68.65;99382.03;10413874;28;20048;-71
2023/03/14 20:02:06;;;;;;;8.00;3.95;;;;;;;7.82;68.82;99400.56;10398913;28;20763;-70
2023/03/14 20:07:07;;;;;;;7.40;3.03;;;;;;;7.88;68.34;99410.66;10412277;28;20059;-71
2023/03/14 20:12:08;;;;;;;4.47;2.38;;;;;;;7.70;68.16;99424.47;10416603;28;20045;-72
2023/03/14 20:17:10;;;;;;;9.23;3.60;;;;;;;7.66;68.13;99425.69;10426551;28;20040;-72
2023/03/14 20:22:12;;;;;;;6.38;2.92;;;;;;;7.79;69.86;99442.28;10459866;28;20037;-71
2023/03/14 20:27:13;;;;;;;8.70;3.20;;;;;;;7.86;68.26;99462.97;10431703;28;20060;-71
2023/03/14 20:32:17;;;;;;;8.00;3.83;;;;;;;7.88;68.29;99477.78;10392720;28;20052;-71
2023/03/14 20:37:18;;;;;;;9.07;4.32;;;;;;;7.81;66.90;99478.38;10407803;28;20140;-71
2023/03/14 20:42:20;;;;;;;4.75;3.05;;;;;;;7.84;65.95;99494.06;10408702;28;20049;-70
2023/03/14 20:47:21;;;;;;;6.45;3.35;;;;;;;7.86;67.56;99511.50;10409935;28;20045;-69
2023/03/14 20:52:23;;;;;;;4.60;2.97;;;;;;;7.70;68.12;99518.97;10396351;28;20056;-68
2023/03/14 20:57:24;;;;;;;9.23;3.33;;;;;;;7.60;66.73;99527.69;10415840;28;20077;-71
2023/03/14 21:02:26;;;;;;;6.30;2.75;;;;;;;7.52;68.03;99542.47;10414644;28;20058;-72
2023/03/14 21:07:33;;;;;;;9.60;4.78;;;;;;;7.59;67.50;99539.22;10399766;28;20072;-69
2023/03/14 21:12:34;;;;;;;7.90;3.40;;;;;;;7.57;67.86;99553.56;10410018;28;20119;-72
2023/03/14 21:17:35;;;;;;;6.13;2.30;;;;;;;7.53;66.45;99560.06;10411083;28;20056;-70
2023/03/14 21:22:40;;;;;;;4.40;1.85;;;;;;;7.57;61.48;99567.66;10403213;28;20060;-69
2023/03/14 21:27:41;;;;;;;5.35;2.28;;;;;;;7.48;64.89;99570.19;10406579;28;20110;-70
2023/03/14 21:32:43;;;;;;;6.93;3.70;;;;;;;7.65;65.80;99590.88;10403984;28;20052;-73
2023/03/14 21:37:48;;;;;;;6.57;3.58;;;;;;;7.47;68.51;99577.28;10408757;28;20263;-68
2023/03/14 21:42:53;;;;;;;4.22;2.30;;;;;;;7.49;67.18;99593.03;10412892;28;20044;-71
2023/03/14 21:47:56;;;;;;;4.60;2.67;;;;;;;7.46;65.36;99599.44;10403495;28;20060;-69
2023/03/14 21:52:57;;;;;;;5.63;3.22;;;;;;;7.29;66.42;99618.44;10392051;28;20134;-71
2023/03/14 21:58:01;;;;;;;8.77;3.83;;;;;;;7.26;67.58;99611.56;10406385;28;20060;-70
2023/03/14 22:03:03;;;;;;;6.57;2.40;;;;;;;7.46;66.68;99627.72;10406963;28;22050;-72
2023/03/14 22:08:15;;;;;;;6.05;2.60;;;;;;;7.54;66.55;99627.97;10389012;28;20689;-67
2023/03/14 22:13:17;;;;;;;7.90;2.97;;;;;;;7.58;68.01;99629.41;10401677;28;20151;-68
2023/03/14 22:18:19;;;;;;;4.40;2.35;;;;;;;7.22;67.17;99637.44;10400888;28;20140;-68
2023/03/14 22:23:20;;;;;;;5.43;2.70;;;;;;;7.41;67.67;99643.97;10374150;28;20144;-66
2023/03/14 22:28:22;;;;;;;5.82;2.85;;;;;;;7.38;67.26;99658.28;10396607;28;20207;-67
2023/03/14 22:33:23;;;;;;;8.95;3.65;;;;;;;7.52;67.51;99670.47;10398219;28;20167;-67
2023/03/14 22:38:25;;;;;;;9.52;4.55;;;;;;;7.43;67.10;99682.59;10384022;28;21819;-67
2023/03/14 22:43:27;;;;;;;7.13;2.92;;;;;;;7.31;67.76;99694.13;10394539;28;20071;-68
2023/03/14 22:48:29;;;;;;;8.32;2.97;;;;;;;7.11;67.38;99690.34;10399248;28;20078;-65
2023/03/14 22:53:31;;;;;;;8.05;3.10;;;;;;;7.15;67.71;99704.19;10385678;28;20778;-69
2023/03/14 22:58:33;;;;;;;5.35;2.45;;;;;;;7.17;66.75;99716.34;10402579;28;20044;-67
2023/03/14 23:03:34;;;;;;;7.00;3.13;;;;;;;7.10;68.29;99732.78;10417354;28;20059;-69
2023/03/14 23:08:36;;;;;;;4.40;2.45;;;;;;;6.99;67.46;99746.81;10416014;28;20048;-68
2023/03/14 23:13:40;;;;;;;9.00;3.15;;;;;;;7.11;67.48;99745.91;10416976;28;24363;-66
2023/03/14 23:18:43;;;;;;;5.40;3.40;;;;;;;7.10;68.02;99748.69;10417251;28;20142;-66
2023/03/14 23:23:46;;;;;;;6.72;2.72;;;;;;;6.99;67.21;99760.06;10416036;28;20131;-69
2023/03/14 23:28:48;;;;;;;7.28;3.40;;;;;;;6.67;69.63;99766.72;10398152;28;20083;-68
2023/03/14 23:33:49;;;;;;;6.32;3.08;;;;;;;6.78;67.71;99763.31;10425393;28;20084;-65
2023/03/14 23:38:51;;;;;;;7.47;3.58;;;;;;;6.66;68.59;99765.03;10432559;28;20643;-66